sensor_id;sensor_type;location;lat;lon;timestamp;P1;durP1;ratioP1;P2;durP2;ratioP2
59271;SDS011;45043;51.068;7.026;2024-01-30T00:02:45;10.53;;;9.37;;
59271;SDS011;45043;51.068;7.026;2024-01-30T00:05:46;11.13;;;9.70;;
59271;SDS011;45043;51.068;7.026;2024-01-30T00:08:48;11.10;;;9.73;;
59271;SDS011;45043;51.068;7.026;2024-01-30T00:11:49;12.40;;;9.67;;
59271;SDS011;45043;51.068;7.026;2024-01-30T00:14:50;11.63;;;10.43;;
59271;SDS011;45043;51.068;7.026;2024-01-30T00:17:51;12.27;;;10.20;;
59271;SDS011;45043;51.068;7.026;2024-01-30T00:20:52;11.37;;;9.67;;
59271;SDS011;45043;51.068;7.026;2024-01-30T00:23:53;11.67;;;10.27;;
59271;SDS011;45043;51.068;7.026;2024-01-30T00:26:54;12.80;;;10.33;;
59271;SDS011;45043;51.068;7.026;2024-01-30T00:29:54;11.67;;;10.47;;
59271;SDS011;45043;51.068;7.026;2024-01-30T00:32:55;11.37;;;9.87;;
59271;SDS011;45043;51.068;7.026;2024-01-30T00:35:56;13.53;;;10.33;;
59271;SDS011;45043;51.068;7.026;2024-01-30T00:38:56;13.10;;;9.87;;
59271;SDS011;45043;51.068;7.026;2024-01-30T00:41:57;14.10;;;10.77;;
59271;SDS011;45043;51.068;7.026;2024-01-30T00:44:58;12.70;;;10.77;;
59271;SDS011;45043;51.068;7.026;2024-01-30T00:47:59;11.97;;;9.90;;
59271;SDS011;45043;51.068;7.026;2024-01-30T00:51:00;13.47;;;9.83;;
59271;SDS011;45043;51.068;7.026;2024-01-30T00:54:00;13.73;;;9.80;;
59271;SDS011;45043;51.068;7.026;2024-01-30T00:57:02;12.17;;;10.70;;
59271;SDS011;45043;51.068;7.026;2024-01-30T01:00:03;13.53;;;10.30;;
59271;SDS011;45043;51.068;7.026;2024-01-30T01:03:06;10.83;;;9.77;;
59271;SDS011;45043;51.068;7.026;2024-01-30T01:06:07;11.77;;;9.80;;
59271;SDS011;45043;51.068;7.026;2024-01-30T01:09:07;12.27;;;10.87;;
59271;SDS011;45043;51.068;7.026;2024-01-30T01:12:08;13.03;;;10.40;;
59271;SDS011;45043;51.068;7.026;2024-01-30T01:15:10;12.33;;;9.90;;
59271;SDS011;45043;51.068;7.026;2024-01-30T01:18:11;11.70;;;9.80;;
59271;SDS011;45043;51.068;7.026;2024-01-30T01:21:12;13.60;;;10.57;;
59271;SDS011;45043;51.068;7.026;2024-01-30T01:24:13;12.80;;;10.37;;
59271;SDS011;45043;51.068;7.026;2024-01-30T01:27:14;13.07;;;10.27;;
59271;SDS011;45043;51.068;7.026;2024-01-30T01:30:14;10.93;;;9.83;;
59271;SDS011;45043;51.068;7.026;2024-01-30T01:33:21;14.43;;;10.83;;
59271;SDS011;45043;51.068;7.026;2024-01-30T01:36:22;13.33;;;10.13;;
59271;SDS011;45043;51.068;7.026;2024-01-30T01:39:23;10.73;;;9.60;;
59271;SDS011;45043;51.068;7.026;2024-01-30T01:42:24;12.20;;;10.53;;
59271;SDS011;45043;51.068;7.026;2024-01-30T01:45:24;12.80;;;10.47;;
59271;SDS011;45043;51.068;7.026;2024-01-30T01:48:25;13.30;;;10.67;;
59271;SDS011;45043;51.068;7.026;2024-01-30T01:51:27;14.23;;;10.83;;
59271;SDS011;45043;51.068;7.026;2024-01-30T01:54:29;13.40;;;10.70;;
59271;SDS011;45043;51.068;7.026;2024-01-30T01:57:31;12.20;;;10.33;;
59271;SDS011;45043;51.068;7.026;2024-01-30T02:00:31;12.47;;;9.67;;
59271;SDS011;45043;51.068;7.026;2024-01-30T02:03:32;12.60;;;9.60;;
59271;SDS011;45043;51.068;7.026;2024-01-30T02:06:34;11.03;;;9.93;;
59271;SDS011;45043;51.068;7.026;2024-01-30T02:09:35;11.30;;;9.20;;
59271;SDS011;45043;51.068;7.026;2024-01-30T02:12:36;11.33;;;10.17;;
59271;SDS011;45043;51.068;7.026;2024-01-30T02:15:36;10.80;;;9.70;;
59271;SDS011;45043;51.068;7.026;2024-01-30T02:18:37;12.60;;;10.20;;
59271;SDS011;45043;51.068;7.026;2024-01-30T02:21:42;12.57;;;10.53;;
59271;SDS011;45043;51.068;7.026;2024-01-30T02:24:42;10.93;;;9.80;;
59271;SDS011;45043;51.068;7.026;2024-01-30T02:27:43;11.73;;;10.53;;
59271;SDS011;45043;51.068;7.026;2024-01-30T02:30:44;13.07;;;10.53;;
59271;SDS011;45043;51.068;7.026;2024-01-30T02:33:46;13.97;;;10.10;;
59271;SDS011;45043;51.068;7.026;2024-01-30T02:36:46;13.40;;;9.60;;
59271;SDS011;45043;51.068;7.026;2024-01-30T02:39:47;10.93;;;9.80;;
59271;SDS011;45043;51.068;7.026;2024-01-30T02:42:48;14.00;;;10.13;;
59271;SDS011;45043;51.068;7.026;2024-01-30T02:45:49;13.17;;;11.10;;
59271;SDS011;45043;51.068;7.026;2024-01-30T02:48:49;11.70;;;9.47;;
59271;SDS011;45043;51.068;7.026;2024-01-30T02:51:51;12.20;;;10.33;;
59271;SDS011;45043;51.068;7.026;2024-01-30T02:54:53;12.63;;;10.10;;
59271;SDS011;45043;51.068;7.026;2024-01-30T02:57:54;10.27;;;9.17;;
59271;SDS011;45043;51.068;7.026;2024-01-30T03:00:54;10.00;;;9.10;;
59271;SDS011;45043;51.068;7.026;2024-01-30T03:03:55;12.17;;;9.43;;
59271;SDS011;45043;51.068;7.026;2024-01-30T03:06:55;11.63;;;9.80;;
59271;SDS011;45043;51.068;7.026;2024-01-30T03:09:56;13.80;;;9.70;;
59271;SDS011;45043;51.068;7.026;2024-01-30T03:12:57;11.40;;;10.20;;
59271;SDS011;45043;51.068;7.026;2024-01-30T03:15:57;12.80;;;10.10;;
59271;SDS011;45043;51.068;7.026;2024-01-30T03:18:58;13.43;;;10.23;;
59271;SDS011;45043;51.068;7.026;2024-01-30T03:21:58;11.37;;;10.27;;
59271;SDS011;45043;51.068;7.026;2024-01-30T03:24:59;11.47;;;9.40;;
59271;SDS011;45043;51.068;7.026;2024-01-30T03:28:00;10.80;;;9.60;;
59271;SDS011;45043;51.068;7.026;2024-01-30T03:31:00;11.70;;;9.50;;
59271;SDS011;45043;51.068;7.026;2024-01-30T03:34:04;11.77;;;9.80;;
59271;SDS011;45043;51.068;7.026;2024-01-30T03:37:04;9.87;;;8.87;;
59271;SDS011;45043;51.068;7.026;2024-01-30T03:40:06;10.17;;;9.13;;
59271;SDS011;45043;51.068;7.026;2024-01-30T03:43:07;11.37;;;8.87;;
59271;SDS011;45043;51.068;7.026;2024-01-30T03:46:08;11.30;;;9.40;;
59271;SDS011;45043;51.068;7.026;2024-01-30T03:49:09;10.73;;;9.70;;
59271;SDS011;45043;51.068;7.026;2024-01-30T03:52:10;10.83;;;9.30;;
59271;SDS011;45043;51.068;7.026;2024-01-30T03:55:10;10.40;;;9.13;;
59271;SDS011;45043;51.068;7.026;2024-01-30T03:58:11;13.00;;;9.17;;
59271;SDS011;45043;51.068;7.026;2024-01-30T04:01:15;11.80;;;8.97;;
59271;SDS011;45043;51.068;7.026;2024-01-30T04:04:15;11.30;;;9.40;;
59271;SDS011;45043;51.068;7.026;2024-01-30T04:07:16;10.37;;;9.27;;
59271;SDS011;45043;51.068;7.026;2024-01-30T04:10:17;10.90;;;9.33;;
59271;SDS011;45043;51.068;7.026;2024-01-30T04:13:17;9.90;;;8.90;;
59271;SDS011;45043;51.068;7.026;2024-01-30T04:16:21;11.00;;;9.30;;
59271;SDS011;45043;51.068;7.026;2024-01-30T04:19:23;9.73;;;8.33;;
59271;SDS011;45043;51.068;7.026;2024-01-30T04:22:23;10.70;;;9.40;;
59271;SDS011;45043;51.068;7.026;2024-01-30T04:25:24;10.57;;;8.47;;
59271;SDS011;45043;51.068;7.026;2024-01-30T04:28:25;13.63;;;9.17;;
59271;SDS011;45043;51.068;7.026;2024-01-30T04:31:25;9.90;;;8.90;;
59271;SDS011;45043;51.068;7.026;2024-01-30T04:34:26;13.30;;;8.87;;
59271;SDS011;45043;51.068;7.026;2024-01-30T04:37:27;10.57;;;9.47;;
59271;SDS011;45043;51.068;7.026;2024-01-30T04:40:28;13.20;;;9.27;;
59271;SDS011;45043;51.068;7.026;2024-01-30T04:43:29;9.93;;;8.93;;
59271;SDS011;45043;51.068;7.026;2024-01-30T04:46:31;12.53;;;9.00;;
59271;SDS011;45043;51.068;7.026;2024-01-30T04:49:31;13.00;;;9.20;;
59271;SDS011;45043;51.068;7.026;2024-01-30T04:52:32;10.07;;;9.07;;
59271;SDS011;45043;51.068;7.026;2024-01-30T04:55:33;11.60;;;8.93;;
59271;SDS011;45043;51.068;7.026;2024-01-30T04:58:34;10.80;;;9.30;;
59271;SDS011;45043;51.068;7.026;2024-01-30T05:01:35;9.70;;;8.53;;
59271;SDS011;45043;51.068;7.026;2024-01-30T05:04:36;9.70;;;8.70;;
59271;SDS011;45043;51.068;7.026;2024-01-30T05:07:38;11.00;;;9.40;;
59271;SDS011;45043;51.068;7.026;2024-01-30T05:10:41;10.27;;;8.97;;
59271;SDS011;45043;51.068;7.026;2024-01-30T05:13:42;11.50;;;8.73;;
59271;SDS011;45043;51.068;7.026;2024-01-30T05:16:42;11.77;;;10.50;;
59271;SDS011;45043;51.068;7.026;2024-01-30T05:19:47;11.87;;;8.43;;
59271;SDS011;45043;51.068;7.026;2024-01-30T05:22:47;11.47;;;8.97;;
59271;SDS011;45043;51.068;7.026;2024-01-30T05:25:48;9.50;;;8.43;;
59271;SDS011;45043;51.068;7.026;2024-01-30T05:28:49;10.83;;;8.73;;
59271;SDS011;45043;51.068;7.026;2024-01-30T05:31:49;10.67;;;8.47;;
59271;SDS011;45043;51.068;7.026;2024-01-30T05:34:50;10.40;;;8.40;;
59271;SDS011;45043;51.068;7.026;2024-01-30T05:37:51;10.50;;;8.00;;
59271;SDS011;45043;51.068;7.026;2024-01-30T05:40:51;11.20;;;7.83;;
59271;SDS011;45043;51.068;7.026;2024-01-30T05:43:52;11.50;;;8.10;;
59271;SDS011;45043;51.068;7.026;2024-01-30T05:46:53;9.43;;;8.20;;
59271;SDS011;45043;51.068;7.026;2024-01-30T05:49:53;9.77;;;8.57;;
59271;SDS011;45043;51.068;7.026;2024-01-30T05:52:54;9.93;;;8.40;;
59271;SDS011;45043;51.068;7.026;2024-01-30T05:55:55;9.03;;;7.63;;
59271;SDS011;45043;51.068;7.026;2024-01-30T05:58:56;11.70;;;8.40;;
59271;SDS011;45043;51.068;7.026;2024-01-30T06:01:57;9.63;;;8.33;;
59271;SDS011;45043;51.068;7.026;2024-01-30T06:04:58;9.87;;;7.87;;
59271;SDS011;45043;51.068;7.026;2024-01-30T06:07:59;11.30;;;8.37;;
59271;SDS011;45043;51.068;7.026;2024-01-30T06:11:00;9.17;;;8.27;;
59271;SDS011;45043;51.068;7.026;2024-01-30T06:14:01;10.40;;;8.00;;
59271;SDS011;45043;51.068;7.026;2024-01-30T06:17:02;10.97;;;8.23;;
59271;SDS011;45043;51.068;7.026;2024-01-30T06:20:04;8.97;;;7.33;;
59271;SDS011;45043;51.068;7.026;2024-01-30T06:23:05;9.20;;;7.87;;
59271;SDS011;45043;51.068;7.026;2024-01-30T06:26:06;9.13;;;8.23;;
59271;SDS011;45043;51.068;7.026;2024-01-30T06:29:19;9.63;;;7.53;;
59271;SDS011;45043;51.068;7.026;2024-01-30T06:32:44;10.63;;;8.63;;
59271;SDS011;45043;51.068;7.026;2024-01-30T06:35:45;9.13;;;7.57;;
59271;SDS011;45043;51.068;7.026;2024-01-30T06:38:46;12.17;;;8.83;;
59271;SDS011;45043;51.068;7.026;2024-01-30T06:41:47;9.57;;;8.67;;
59271;SDS011;45043;51.068;7.026;2024-01-30T06:44:48;9.77;;;7.87;;
59271;SDS011;45043;51.068;7.026;2024-01-30T06:47:49;10.07;;;8.73;;
59271;SDS011;45043;51.068;7.026;2024-01-30T06:50:50;11.13;;;8.27;;
59271;SDS011;45043;51.068;7.026;2024-01-30T06:53:54;8.43;;;7.50;;
59271;SDS011;45043;51.068;7.026;2024-01-30T06:56:54;10.17;;;8.00;;
59271;SDS011;45043;51.068;7.026;2024-01-30T06:59:56;9.93;;;7.93;;
59271;SDS011;45043;51.068;7.026;2024-01-30T07:02:57;9.63;;;7.17;;
59271;SDS011;45043;51.068;7.026;2024-01-30T07:05:58;12.53;;;8.90;;
59271;SDS011;45043;51.068;7.026;2024-01-30T07:08:59;9.07;;;7.67;;
59271;SDS011;45043;51.068;7.026;2024-01-30T07:11:59;9.87;;;8.87;;
59271;SDS011;45043;51.068;7.026;2024-01-30T07:15:00;9.90;;;8.10;;
59271;SDS011;45043;51.068;7.026;2024-01-30T07:18:03;9.87;;;7.93;;
59271;SDS011;45043;51.068;7.026;2024-01-30T07:21:05;10.10;;;8.23;;
59271;SDS011;45043;51.068;7.026;2024-01-30T07:24:06;9.73;;;7.43;;
59271;SDS011;45043;51.068;7.026;2024-01-30T07:27:06;11.43;;;8.73;;
59271;SDS011;45043;51.068;7.026;2024-01-30T07:30:07;12.30;;;8.30;;
59271;SDS011;45043;51.068;7.026;2024-01-30T07:33:07;8.63;;;7.73;;
59271;SDS011;45043;51.068;7.026;2024-01-30T07:36:09;10.73;;;7.73;;
59271;SDS011;45043;51.068;7.026;2024-01-30T07:39:11;11.57;;;8.47;;
59271;SDS011;45043;51.068;7.026;2024-01-30T07:42:13;11.20;;;7.90;;
59271;SDS011;45043;51.068;7.026;2024-01-30T07:45:14;10.17;;;7.90;;
59271;SDS011;45043;51.068;7.026;2024-01-30T07:48:15;13.20;;;9.70;;
59271;SDS011;45043;51.068;7.026;2024-01-30T07:51:16;9.70;;;8.63;;
59271;SDS011;45043;51.068;7.026;2024-01-30T07:54:18;9.33;;;7.90;;
59271;SDS011;45043;51.068;7.026;2024-01-30T07:57:19;12.63;;;9.03;;
59271;SDS011;45043;51.068;7.026;2024-01-30T08:00:21;10.63;;;7.60;;
59271;SDS011;45043;51.068;7.026;2024-01-30T08:03:22;12.10;;;9.07;;
59271;SDS011;45043;51.068;7.026;2024-01-30T08:06:23;9.67;;;8.60;;
59271;SDS011;45043;51.068;7.026;2024-01-30T08:09:23;12.60;;;7.10;;
59271;SDS011;45043;51.068;7.026;2024-01-30T08:12:24;10.33;;;8.20;;
59271;SDS011;45043;51.068;7.026;2024-01-30T08:15:25;11.37;;;9.00;;
59271;SDS011;45043;51.068;7.026;2024-01-30T08:18:26;9.27;;;8.00;;
59271;SDS011;45043;51.068;7.026;2024-01-30T08:21:27;8.97;;;8.07;;
59271;SDS011;45043;51.068;7.026;2024-01-30T08:24:28;11.57;;;9.03;;
59271;SDS011;45043;51.068;7.026;2024-01-30T08:27:28;11.73;;;9.07;;
59271;SDS011;45043;51.068;7.026;2024-01-30T08:30:29;10.70;;;8.47;;
59271;SDS011;45043;51.068;7.026;2024-01-30T08:33:30;10.37;;;8.70;;
59271;SDS011;45043;51.068;7.026;2024-01-30T08:36:31;11.40;;;8.57;;
59271;SDS011;45043;51.068;7.026;2024-01-30T08:39:32;10.37;;;8.47;;
59271;SDS011;45043;51.068;7.026;2024-01-30T08:42:33;9.70;;;7.80;;
59271;SDS011;45043;51.068;7.026;2024-01-30T08:45:34;10.73;;;8.43;;
59271;SDS011;45043;51.068;7.026;2024-01-30T08:48:35;11.80;;;9.30;;
59271;SDS011;45043;51.068;7.026;2024-01-30T08:51:36;11.33;;;8.03;;
59271;SDS011;45043;51.068;7.026;2024-01-30T08:54:36;10.83;;;9.13;;
59271;SDS011;45043;51.068;7.026;2024-01-30T08:57:37;10.60;;;8.57;;
59271;SDS011;45043;51.068;7.026;2024-01-30T09:00:38;11.70;;;8.87;;
59271;SDS011;45043;51.068;7.026;2024-01-30T09:03:39;12.13;;;8.63;;
59271;SDS011;45043;51.068;7.026;2024-01-30T09:06:41;11.60;;;8.20;;
59271;SDS011;45043;51.068;7.026;2024-01-30T09:09:42;13.33;;;9.23;;
59271;SDS011;45043;51.068;7.026;2024-01-30T09:12:43;10.87;;;8.50;;
59271;SDS011;45043;51.068;7.026;2024-01-30T09:15:43;10.70;;;9.20;;
59271;SDS011;45043;51.068;7.026;2024-01-30T09:18:45;9.53;;;8.47;;
59271;SDS011;45043;51.068;7.026;2024-01-30T09:21:45;11.17;;;8.40;;
59271;SDS011;45043;51.068;7.026;2024-01-30T09:24:46;10.13;;;8.30;;
59271;SDS011;45043;51.068;7.026;2024-01-30T09:27:47;11.03;;;7.93;;
59271;SDS011;45043;51.068;7.026;2024-01-30T09:30:47;11.07;;;8.03;;
59271;SDS011;45043;51.068;7.026;2024-01-30T09:33:47;11.40;;;8.30;;
59271;SDS011;45043;51.068;7.026;2024-01-30T09:36:49;10.17;;;7.80;;
59271;SDS011;45043;51.068;7.026;2024-01-30T09:39:50;9.87;;;8.70;;
59271;SDS011;45043;51.068;7.026;2024-01-30T09:42:51;8.83;;;7.77;;
59271;SDS011;45043;51.068;7.026;2024-01-30T09:45:54;9.73;;;8.00;;
59271;SDS011;45043;51.068;7.026;2024-01-30T09:48:56;10.90;;;7.37;;
59271;SDS011;45043;51.068;7.026;2024-01-30T09:51:58;10.37;;;7.67;;
59271;SDS011;45043;51.068;7.026;2024-01-30T09:55:02;11.40;;;8.63;;
59271;SDS011;45043;51.068;7.026;2024-01-30T09:58:03;11.83;;;8.60;;
59271;SDS011;45043;51.068;7.026;2024-01-30T10:01:04;12.43;;;8.47;;
59271;SDS011;45043;51.068;7.026;2024-01-30T10:04:08;9.20;;;7.53;;
59271;SDS011;45043;51.068;7.026;2024-01-30T10:07:09;9.63;;;8.00;;
59271;SDS011;45043;51.068;7.026;2024-01-30T10:10:11;9.00;;;7.63;;
59271;SDS011;45043;51.068;7.026;2024-01-30T10:13:12;10.33;;;7.20;;
59271;SDS011;45043;51.068;7.026;2024-01-30T10:16:15;11.70;;;7.90;;
59271;SDS011;45043;51.068;7.026;2024-01-30T10:19:18;10.80;;;8.20;;
59271;SDS011;45043;51.068;7.026;2024-01-30T10:22:19;9.03;;;7.73;;
59271;SDS011;45043;51.068;7.026;2024-01-30T10:25:21;11.53;;;8.27;;
59271;SDS011;45043;51.068;7.026;2024-01-30T10:28:22;10.33;;;8.00;;
59271;SDS011;45043;51.068;7.026;2024-01-30T10:31:22;10.80;;;6.77;;
59271;SDS011;45043;51.068;7.026;2024-01-30T10:34:24;8.53;;;7.27;;
59271;SDS011;45043;51.068;7.026;2024-01-30T10:37:25;9.93;;;6.63;;
59271;SDS011;45043;51.068;7.026;2024-01-30T10:40:27;9.67;;;6.60;;
59271;SDS011;45043;51.068;7.026;2024-01-30T10:43:33;9.43;;;6.93;;
59271;SDS011;45043;51.068;7.026;2024-01-30T10:46:39;9.63;;;7.67;;
59271;SDS011;45043;51.068;7.026;2024-01-30T10:49:43;7.63;;;6.93;;
59271;SDS011;45043;51.068;7.026;2024-01-30T10:52:43;9.00;;;6.93;;
59271;SDS011;45043;51.068;7.026;2024-01-30T10:55:45;10.20;;;7.10;;
59271;SDS011;45043;51.068;7.026;2024-01-30T10:58:52;11.40;;;7.10;;
59271;SDS011;45043;51.068;7.026;2024-01-30T11:01:53;8.33;;;7.00;;
59271;SDS011;45043;51.068;7.026;2024-01-30T11:04:58;9.20;;;7.13;;
59271;SDS011;45043;51.068;7.026;2024-01-30T11:08:09;8.90;;;7.00;;
59271;SDS011;45043;51.068;7.026;2024-01-30T11:11:12;10.27;;;6.80;;
59271;SDS011;45043;51.068;7.026;2024-01-30T11:14:13;8.47;;;7.13;;
59271;SDS011;45043;51.068;7.026;2024-01-30T11:17:13;9.73;;;6.77;;
59271;SDS011;45043;51.068;7.026;2024-01-30T11:23:36;9.53;;;6.47;;
59271;SDS011;45043;51.068;7.026;2024-01-30T11:26:36;7.70;;;6.47;;
59271;SDS011;45043;51.068;7.026;2024-01-30T11:29:38;9.93;;;7.00;;
59271;SDS011;45043;51.068;7.026;2024-01-30T11:32:40;7.87;;;6.80;;
59271;SDS011;45043;51.068;7.026;2024-01-30T11:35:42;13.17;;;6.43;;
59271;SDS011;45043;51.068;7.026;2024-01-30T11:38:43;8.67;;;6.63;;
59271;SDS011;45043;51.068;7.026;2024-01-30T11:41:45;10.60;;;6.40;;
59271;SDS011;45043;51.068;7.026;2024-01-30T11:44:47;7.27;;;6.27;;
59271;SDS011;45043;51.068;7.026;2024-01-30T11:47:48;8.00;;;6.57;;
59271;SDS011;45043;51.068;7.026;2024-01-30T11:50:49;11.07;;;7.20;;
59271;SDS011;45043;51.068;7.026;2024-01-30T11:53:52;6.90;;;6.13;;
59271;SDS011;45043;51.068;7.026;2024-01-30T11:56:52;10.17;;;7.17;;
59271;SDS011;45043;51.068;7.026;2024-01-30T11:59:53;10.07;;;6.50;;
59271;SDS011;45043;51.068;7.026;2024-01-30T12:02:54;9.67;;;6.53;;
59271;SDS011;45043;51.068;7.026;2024-01-30T12:06:02;10.67;;;6.47;;
59271;SDS011;45043;51.068;7.026;2024-01-30T12:09:03;11.83;;;6.53;;
59271;SDS011;45043;51.068;7.026;2024-01-30T12:12:10;10.03;;;6.70;;
59271;SDS011;45043;51.068;7.026;2024-01-30T12:15:12;8.80;;;6.73;;
59271;SDS011;45043;51.068;7.026;2024-01-30T12:18:14;9.00;;;7.20;;
59271;SDS011;45043;51.068;7.026;2024-01-30T12:21:19;8.43;;;6.40;;
59271;SDS011;45043;51.068;7.026;2024-01-30T12:24:19;8.60;;;7.37;;
59271;SDS011;45043;51.068;7.026;2024-01-30T12:27:21;10.17;;;7.37;;
59271;SDS011;45043;51.068;7.026;2024-01-30T12:30:22;8.30;;;6.80;;
59271;SDS011;45043;51.068;7.026;2024-01-30T12:33:26;11.57;;;8.03;;
59271;SDS011;45043;51.068;7.026;2024-01-30T12:36:27;13.03;;;9.60;;
59271;SDS011;45043;51.068;7.026;2024-01-30T12:39:29;10.43;;;7.63;;
59271;SDS011;45043;51.068;7.026;2024-01-30T12:42:30;10.03;;;7.63;;
59271;SDS011;45043;51.068;7.026;2024-01-30T12:45:31;10.07;;;7.83;;
59271;SDS011;45043;51.068;7.026;2024-01-30T12:48:32;11.00;;;7.83;;
59271;SDS011;45043;51.068;7.026;2024-01-30T12:51:34;11.50;;;8.43;;
59271;SDS011;45043;51.068;7.026;2024-01-30T12:54:35;11.80;;;8.67;;
59271;SDS011;45043;51.068;7.026;2024-01-30T12:57:36;13.90;;;9.57;;
59271;SDS011;45043;51.068;7.026;2024-01-30T13:00:37;11.50;;;8.67;;
59271;SDS011;45043;51.068;7.026;2024-01-30T13:03:38;11.67;;;9.63;;
59271;SDS011;45043;51.068;7.026;2024-01-30T13:06:38;13.00;;;8.10;;
59271;SDS011;45043;51.068;7.026;2024-01-30T13:09:39;13.10;;;8.93;;
59271;SDS011;45043;51.068;7.026;2024-01-30T13:12:40;10.20;;;8.13;;
59271;SDS011;45043;51.068;7.026;2024-01-30T13:15:40;14.63;;;9.17;;
59271;SDS011;45043;51.068;7.026;2024-01-30T13:18:42;12.80;;;8.83;;
59271;SDS011;45043;51.068;7.026;2024-01-30T13:21:43;13.90;;;8.47;;
59271;SDS011;45043;51.068;7.026;2024-01-30T13:24:43;13.10;;;8.97;;
59271;SDS011;45043;51.068;7.026;2024-01-30T13:27:45;11.03;;;8.37;;
59271;SDS011;45043;51.068;7.026;2024-01-30T13:30:46;15.23;;;9.50;;
59271;SDS011;45043;51.068;7.026;2024-01-30T13:33:46;13.63;;;9.03;;
59271;SDS011;45043;51.068;7.026;2024-01-30T13:36:48;12.03;;;8.40;;
59271;SDS011;45043;51.068;7.026;2024-01-30T13:39:49;13.53;;;9.50;;
59271;SDS011;45043;51.068;7.026;2024-01-30T13:42:53;11.00;;;8.53;;
59271;SDS011;45043;51.068;7.026;2024-01-30T13:45:54;10.63;;;8.90;;
59271;SDS011;45043;51.068;7.026;2024-01-30T13:48:55;13.53;;;8.93;;
59271;SDS011;45043;51.068;7.026;2024-01-30T13:51:57;14.47;;;9.00;;
59271;SDS011;45043;51.068;7.026;2024-01-30T13:54:59;11.80;;;8.23;;
59271;SDS011;45043;51.068;7.026;2024-01-30T13:57:59;14.80;;;8.70;;
59271;SDS011;45043;51.068;7.026;2024-01-30T14:01:02;10.00;;;7.07;;
59271;SDS011;45043;51.068;7.026;2024-01-30T14:04:02;10.40;;;6.77;;
59271;SDS011;45043;51.068;7.026;2024-01-30T14:07:04;10.37;;;6.87;;
59271;SDS011;45043;51.068;7.026;2024-01-30T14:10:06;11.17;;;7.27;;
59271;SDS011;45043;51.068;7.026;2024-01-30T14:13:07;11.23;;;7.23;;
59271;SDS011;45043;51.068;7.026;2024-01-30T14:16:08;14.10;;;7.63;;
59271;SDS011;45043;51.068;7.026;2024-01-30T14:19:08;10.80;;;7.47;;
59271;SDS011;45043;51.068;7.026;2024-01-30T14:22:09;10.70;;;7.50;;
59271;SDS011;45043;51.068;7.026;2024-01-30T14:25:10;9.73;;;7.20;;
59271;SDS011;45043;51.068;7.026;2024-01-30T14:28:10;9.57;;;7.30;;
59271;SDS011;45043;51.068;7.026;2024-01-30T14:31:11;14.33;;;7.80;;
59271;SDS011;45043;51.068;7.026;2024-01-30T14:34:12;11.70;;;7.13;;
59271;SDS011;45043;51.068;7.026;2024-01-30T14:37:14;11.57;;;8.10;;
59271;SDS011;45043;51.068;7.026;2024-01-30T14:40:15;11.80;;;7.63;;
59271;SDS011;45043;51.068;7.026;2024-01-30T14:43:17;11.07;;;7.50;;
59271;SDS011;45043;51.068;7.026;2024-01-30T14:46:17;10.33;;;7.10;;
59271;SDS011;45043;51.068;7.026;2024-01-30T14:49:18;12.60;;;7.67;;
59271;SDS011;45043;51.068;7.026;2024-01-30T14:52:19;10.53;;;7.33;;
59271;SDS011;45043;51.068;7.026;2024-01-30T14:55:20;12.67;;;8.10;;
59271;SDS011;45043;51.068;7.026;2024-01-30T14:58:21;12.67;;;7.97;;
59271;SDS011;45043;51.068;7.026;2024-01-30T15:01:22;12.53;;;7.47;;
59271;SDS011;45043;51.068;7.026;2024-01-30T15:04:23;15.33;;;8.80;;
59271;SDS011;45043;51.068;7.026;2024-01-30T15:07:24;16.23;;;8.70;;
59271;SDS011;45043;51.068;7.026;2024-01-30T15:10:25;11.17;;;8.57;;
59271;SDS011;45043;51.068;7.026;2024-01-30T15:13:26;12.03;;;8.63;;
59271;SDS011;45043;51.068;7.026;2024-01-30T15:16:26;12.90;;;8.77;;
59271;SDS011;45043;51.068;7.026;2024-01-30T15:19:28;13.93;;;9.33;;
59271;SDS011;45043;51.068;7.026;2024-01-30T15:22:29;15.80;;;8.83;;
59271;SDS011;45043;51.068;7.026;2024-01-30T15:25:30;15.37;;;8.73;;
59271;SDS011;45043;51.068;7.026;2024-01-30T15:28:35;13.13;;;8.70;;
59271;SDS011;45043;51.068;7.026;2024-01-30T15:31:39;11.80;;;8.07;;
59271;SDS011;45043;51.068;7.026;2024-01-30T15:34:39;16.40;;;8.73;;
59271;SDS011;45043;51.068;7.026;2024-01-30T15:37:40;10.50;;;7.97;;
59271;SDS011;45043;51.068;7.026;2024-01-30T15:40:41;12.50;;;8.30;;
59271;SDS011;45043;51.068;7.026;2024-01-30T15:43:42;14.73;;;9.07;;
59271;SDS011;45043;51.068;7.026;2024-01-30T15:46:43;15.80;;;9.10;;
59271;SDS011;45043;51.068;7.026;2024-01-30T15:49:43;13.73;;;9.07;;
59271;SDS011;45043;51.068;7.026;2024-01-30T15:52:44;13.27;;;9.73;;
59271;SDS011;45043;51.068;7.026;2024-01-30T15:55:45;16.10;;;10.00;;
59271;SDS011;45043;51.068;7.026;2024-01-30T15:58:47;17.93;;;9.97;;
59271;SDS011;45043;51.068;7.026;2024-01-30T16:01:49;19.57;;;11.37;;
59271;SDS011;45043;51.068;7.026;2024-01-30T16:04:50;15.57;;;11.07;;
59271;SDS011;45043;51.068;7.026;2024-01-30T16:07:51;14.17;;;9.67;;
59271;SDS011;45043;51.068;7.026;2024-01-30T16:10:51;14.00;;;8.07;;
59271;SDS011;45043;51.068;7.026;2024-01-30T16:13:52;12.30;;;7.87;;
59271;SDS011;45043;51.068;7.026;2024-01-30T16:16:53;12.80;;;7.70;;
59271;SDS011;45043;51.068;7.026;2024-01-30T16:19:53;12.40;;;7.30;;
59271;SDS011;45043;51.068;7.026;2024-01-30T16:22:54;10.37;;;5.63;;
59271;SDS011;45043;51.068;7.026;2024-01-30T16:25:55;9.63;;;5.40;;
59271;SDS011;45043;51.068;7.026;2024-01-30T16:28:58;8.70;;;4.90;;
59271;SDS011;45043;51.068;7.026;2024-01-30T16:31:59;7.30;;;5.13;;
59271;SDS011;45043;51.068;7.026;2024-01-30T16:34:59;7.63;;;4.90;;
59271;SDS011;45043;51.068;7.026;2024-01-30T16:38:00;6.27;;;4.10;;
59271;SDS011;45043;51.068;7.026;2024-01-30T16:41:01;5.93;;;3.07;;
59271;SDS011;45043;51.068;7.026;2024-01-30T16:44:03;6.13;;;2.90;;
59271;SDS011;45043;51.068;7.026;2024-01-30T16:47:04;4.83;;;3.50;;
59271;SDS011;45043;51.068;7.026;2024-01-30T16:50:05;3.67;;;2.60;;
59271;SDS011;45043;51.068;7.026;2024-01-30T16:53:06;6.60;;;3.47;;
59271;SDS011;45043;51.068;7.026;2024-01-30T16:56:07;4.53;;;2.80;;
59271;SDS011;45043;51.068;7.026;2024-01-30T16:59:08;4.63;;;2.90;;
59271;SDS011;45043;51.068;7.026;2024-01-30T17:02:09;5.20;;;2.80;;
59271;SDS011;45043;51.068;7.026;2024-01-30T17:05:10;5.63;;;3.63;;
59271;SDS011;45043;51.068;7.026;2024-01-30T17:08:11;7.13;;;3.43;;
59271;SDS011;45043;51.068;7.026;2024-01-30T17:11:12;5.17;;;2.90;;
59271;SDS011;45043;51.068;7.026;2024-01-30T17:14:13;4.10;;;2.77;;
59271;SDS011;45043;51.068;7.026;2024-01-30T17:17:14;3.40;;;2.50;;
59271;SDS011;45043;51.068;7.026;2024-01-30T17:20:15;4.13;;;2.57;;
59271;SDS011;45043;51.068;7.026;2024-01-30T17:23:15;4.33;;;2.37;;
59271;SDS011;45043;51.068;7.026;2024-01-30T17:26:16;3.73;;;2.27;;
59271;SDS011;45043;51.068;7.026;2024-01-30T17:29:17;7.03;;;2.50;;
59271;SDS011;45043;51.068;7.026;2024-01-30T17:32:18;3.73;;;1.40;;
59271;SDS011;45043;51.068;7.026;2024-01-30T17:35:18;3.70;;;1.73;;
59271;SDS011;45043;51.068;7.026;2024-01-30T17:38:19;2.90;;;1.73;;
59271;SDS011;45043;51.068;7.026;2024-01-30T17:41:19;2.73;;;1.80;;
59271;SDS011;45043;51.068;7.026;2024-01-30T17:44:20;4.83;;;1.83;;
59271;SDS011;45043;51.068;7.026;2024-01-30T17:47:21;4.63;;;1.90;;
59271;SDS011;45043;51.068;7.026;2024-01-30T17:50:22;2.63;;;1.60;;
59271;SDS011;45043;51.068;7.026;2024-01-30T17:53:23;7.03;;;2.13;;
59271;SDS011;45043;51.068;7.026;2024-01-30T17:56:26;4.27;;;2.30;;
59271;SDS011;45043;51.068;7.026;2024-01-30T17:59:27;4.53;;;2.10;;
59271;SDS011;45043;51.068;7.026;2024-01-30T18:02:28;3.63;;;1.80;;